Time;durP1;ratioP1;P1;durP2;ratioP2;P2;SDS_P1;SDS_P2;PMS_P1;PMS_P2;Temp;Humidity;BMP_temperature;BMP_pressure;BME280_temperature;BME280_humidity;BME280_pressure;Samples;Min_cycle;Max_cycle;Signal;HPM_P1;HPM_P2
2022/04/06 00:01:40;;;;;;;3.53;2.67;;;10.60;99.90;;;;;;5050426;28;20479;-71
2022/04/06 00:04:07;;;;;;;5.27;3.90;;;10.60;99.90;;;;;;5049147;28;20485;-73
2022/04/06 00:06:33;;;;;;;10.97;6.53;;;10.60;99.90;;;;;;5036127;28;20510;-72
2022/04/06 00:09:00;;;;;;;11.57;5.20;;;10.50;99.90;;;;;;5045029;28;20506;-71
2022/04/06 00:11:27;;;;;;;15.93;5.70;;;10.50;99.90;;;;;;5044430;28;20920;-71
2022/04/06 00:13:53;;;;;;;20.30;8.43;;;10.60;99.90;;;;;;5047098;28;20469;-71
2022/04/06 00:16:20;;;;;;;19.00;7.47;;;10.60;99.90;;;;;;5041506;28;20930;-71
2022/04/06 00:18:48;;;;;;;5.90;3.27;;;10.60;99.90;;;;;;5046289;28;20463;-71
2022/04/06 00:21:15;;;;;;;13.60;7.07;;;10.70;99.90;;;;;;5045560;28;20496;-69
2022/04/06 00:23:42;;;;;;;2.40;2.00;;;10.60;99.90;;;;;;5046018;28;20453;-71
2022/04/06 00:26:08;;;;;;;9.43;5.73;;;10.60;99.90;;;;;;5042055;28;20458;-72
2022/04/06 00:28:35;;;;;;;7.47;4.97;;;10.60;99.90;;;;;;5039954;28;20471;-72
2022/04/06 00:31:02;;;;;;;7.80;4.83;;;10.60;99.90;;;;;;5048395;28;20534;-70
2022/04/06 00:33:29;;;;;;;20.53;5.53;;;10.70;99.90;;;;;;5036685;28;20999;-72
2022/04/06 00:35:57;;;;;;;12.23;4.40;;;10.70;99.90;;;;;;5044199;28;20860;-72
2022/04/06 00:38:23;;;;;;;9.70;5.50;;;10.70;99.90;;;;;;5042528;28;20545;-71
2022/04/06 00:40:51;;;;;;;5.70;3.83;;;10.80;99.90;;;;;;5046506;28;20591;-72
2022/04/06 00:43:17;;;;;;;21.10;7.70;;;10.80;99.90;;;;;;5045726;28;20480;-73
2022/04/06 00:45:44;;;;;;;7.30;4.00;;;10.80;99.90;;;;;;5046161;28;20463;-71
2022/04/06 00:48:12;;;;;;;12.03;5.30;;;10.80;99.90;;;;;;5041510;28;20459;-71
2022/04/06 00:50:41;;;;;;;6.63;4.30;;;10.70;99.90;;;;;;5043364;28;20822;-72
2022/04/06 00:53:11;;;;;;;16.20;5.17;;;10.60;99.90;;;;;;5045223;28;20483;-70
2022/04/06 00:55:39;;;;;;;9.20;4.10;;;10.70;99.90;;;;;;5046602;28;20491;-73
2022/04/06 00:58:07;;;;;;;6.13;4.23;;;10.60;99.90;;;;;;5046585;28;20506;-72
2022/04/06 01:00:34;;;;;;;5.33;3.50;;;10.60;99.90;;;;;;5038223;28;20490;-72
2022/04/06 01:03:01;;;;;;;8.57;3.70;;;10.60;99.90;;;;;;5047905;28;20470;-70
2022/04/06 01:05:28;;;;;;;4.90;3.70;;;10.60;99.90;;;;;;5042533;28;20803;-71
2022/04/06 01:07:59;;;;;;;8.40;5.20;;;10.50;99.90;;;;;;5042855;28;20472;-71
2022/04/06 01:10:27;;;;;;;7.07;3.43;;;10.50;99.90;;;;;;5044348;28;20561;-71
2022/04/06 01:12:55;;;;;;;6.70;3.50;;;10.50;99.90;;;;;;5045566;28;21008;-72
2022/04/06 01:15:23;;;;;;;5.80;3.20;;;10.40;99.90;;;;;;5050419;28;20835;-72
2022/04/06 01:17:50;;;;;;;7.50;4.30;;;10.40;99.90;;;;;;5043756;28;20465;-70
2022/04/06 01:20:16;;;;;;;8.77;4.90;;;10.50;99.90;;;;;;5044280;28;20479;-71
2022/04/06 01:22:44;;;;;;;9.30;4.73;;;10.50;99.90;;;;;;5045666;28;20568;-73
2022/04/06 01:25:11;;;;;;;5.40;3.67;;;10.60;99.90;;;;;;5044449;28;20516;-71
2022/04/06 01:27:38;;;;;;;12.03;4.37;;;10.50;99.90;;;;;;5041221;28;20904;-72
2022/04/06 01:30:06;;;;;;;6.80;4.37;;;10.50;99.90;;;;;;5043770;28;20454;-70
2022/04/06 01:32:35;;;;;;;12.07;4.83;;;10.50;99.90;;;;;;5043490;28;20849;-72
2022/04/06 01:35:01;;;;;;;9.13;4.80;;;10.40;99.90;;;;;;5044408;28;20433;-71
2022/04/06 01:37:28;;;;;;;5.87;3.67;;;10.50;99.90;;;;;;5050829;28;20512;-73
2022/04/06 01:39:57;;;;;;;13.23;3.47;;;10.50;99.90;;;;;;5041881;28;20931;-73
2022/04/06 01:42:24;;;;;;;9.13;5.33;;;10.40;99.90;;;;;;5039813;28;20556;-71
2022/04/06 01:44:52;;;;;;;6.40;3.80;;;10.40;99.90;;;;;;5043175;28;20455;-73
2022/04/06 01:47:20;;;;;;;8.80;3.83;;;10.40;99.90;;;;;;5046802;28;20974;-72
2022/04/06 01:52:32;;;;;;;5.90;2.87;;;10.40;99.90;;;;;;5046264;28;20465;-70
2022/04/06 01:55:02;;;;;;;6.93;3.60;;;10.30;99.90;;;;;;5042462;28;20642;-72
2022/04/06 01:57:30;;;;;;;12.97;5.30;;;10.30;99.90;;;;;;5043991;28;20455;-73
2022/04/06 01:59:57;;;;;;;15.93;3.97;;;10.30;99.90;;;;;;5042375;28;20841;-73
2022/04/06 02:02:27;;;;;;;6.90;3.10;;;10.40;99.90;;;;;;5040718;28;20495;-71
2022/04/06 02:04:53;;;;;;;10.73;3.87;;;10.40;99.90;;;;;;5042777;28;21033;-72
2022/04/06 02:07:20;;;;;;;9.20;3.83;;;10.30;99.90;;;;;;5041154;28;20922;-71
2022/04/06 02:09:47;;;;;;;11.47;4.30;;;10.30;99.90;;;;;;5043591;28;20485;-72
2022/04/06 02:12:15;;;;;;;3.50;2.37;;;10.40;99.90;;;;;;5051033;28;20510;-72
2022/04/06 02:14:43;;;;;;;21.93;4.27;;;10.40;99.90;;;;;;5047909;28;20571;-71
2022/04/06 02:17:10;;;;;;;10.03;4.47;;;10.30;99.90;;;;;;5045335;28;20455;-72
2022/04/06 02:19:39;;;;;;;1.80;1.20;;;10.30;99.90;;;;;;5042395;28;20471;-72
2022/04/06 02:22:06;;;;;;;5.30;4.20;;;10.40;99.90;;;;;;5046485;28;20463;-71
2022/04/06 02:24:33;;;;;;;4.27;3.60;;;10.40;99.90;;;;;;5051308;28;20458;-71
2022/04/06 02:27:00;;;;;;;6.00;3.50;;;10.40;99.90;;;;;;5050534;28;20962;-69
2022/04/06 02:29:29;;;;;;;8.50;3.50;;;10.30;99.90;;;;;;5047113;28;20848;-71
2022/04/06 02:31:56;;;;;;;10.63;4.50;;;10.40;99.90;;;;;;5054409;28;20458;-72
2022/04/06 02:34:23;;;;;;;3.47;2.77;;;10.40;99.90;;;;;;5047430;28;20462;-71
2022/04/06 02:36:49;;;;;;;3.43;2.50;;;10.40;99.90;;;;;;5049123;28;20450;-71
2022/04/06 02:39:16;;;;;;;9.07;3.20;;;10.30;99.90;;;;;;5053999;28;20454;-72
2022/04/06 02:41:42;;;;;;;8.33;3.63;;;10.20;99.90;;;;;;5053934;28;20551;-71
2022/04/06 02:44:09;;;;;;;2.80;2.23;;;10.20;99.90;;;;;;5053426;28;20812;-70
2022/04/06 02:46:37;;;;;;;11.70;3.53;;;10.20;99.90;;;;;;5052928;28;20469;-73
2022/04/06 02:49:04;;;;;;;8.83;3.87;;;10.20;99.90;;;;;;5056095;28;20882;-73
2022/04/06 02:51:31;;;;;;;7.27;3.63;;;10.20;99.90;;;;;;5051254;28;20602;-71
2022/04/06 02:53:58;;;;;;;6.77;3.93;;;10.20;99.90;;;;;;5050883;28;20485;-70
2022/04/06 02:56:25;;;;;;;3.67;3.00;;;10.20;99.90;;;;;;5051403;28;20486;-68
2022/04/06 02:58:52;;;;;;;4.70;2.80;;;10.20;99.90;;;;;;5061026;28;20466;-72
2022/04/06 03:01:18;;;;;;;14.00;4.90;;;10.10;99.90;;;;;;5047455;28;20915;-72
2022/04/06 03:03:47;;;;;;;4.83;3.60;;;10.20;99.90;;;;;;5051429;28;20494;-69
2022/04/06 03:06:13;;;;;;;5.43;3.30;;;10.30;99.90;;;;;;5055664;28;20459;-70
2022/04/06 03:08:40;;;;;;;8.90;3.70;;;10.40;99.90;;;;;;5060182;28;20543;-72
2022/04/06 03:11:07;;;;;;;10.90;4.83;;;10.30;99.90;;;;;;5053155;28;20519;-71
2022/04/06 03:13:34;;;;;;;15.00;4.53;;;10.30;99.90;;;;;;5050349;28;20485;-70
2022/04/06 03:16:00;;;;;;;6.43;3.80;;;10.20;99.90;;;;;;5051586;28;20466;-70
2022/04/06 03:18:27;;;;;;;7.13;3.13;;;10.10;99.90;;;;;;5043583;28;20454;-71
2022/04/06 03:20:55;;;;;;;4.27;2.53;;;10.20;99.90;;;;;;5052077;28;20573;-72
2022/04/06 03:23:22;;;;;;;2.23;2.00;;;10.20;99.90;;;;;;5058350;28;20481;-71
2022/04/06 03:25:49;;;;;;;5.70;3.83;;;10.30;99.90;;;;;;5057070;28;20544;-71
2022/04/06 03:28:16;;;;;;;9.03;4.27;;;10.40;99.90;;;;;;5037183;28;20470;-71
2022/04/06 03:30:44;;;;;;;4.20;2.87;;;10.50;99.90;;;;;;5055700;28;20504;-70
2022/04/06 03:33:13;;;;;;;3.50;2.87;;;10.40;99.90;;;;;;5042500;28;20675;-71
2022/04/06 03:35:39;;;;;;;3.43;2.53;;;10.30;99.90;;;;;;5053044;28;20490;-70
2022/04/06 03:38:08;;;;;;;8.43;2.70;;;10.20;99.90;;;;;;5045896;28;20463;-71
2022/04/06 03:40:34;;;;;;;4.20;3.80;;;10.30;99.90;;;;;;5049433;28;20926;-72
2022/04/06 03:43:01;;;;;;;6.93;2.80;;;10.30;99.90;;;;;;5049067;28;20530;-72
2022/04/06 03:45:28;;;;;;;6.63;2.97;;;10.20;99.90;;;;;;5047130;28;20633;-72
2022/04/06 03:47:55;;;;;;;11.90;2.60;;;10.20;99.90;;;;;;5053320;28;20779;-71
2022/04/06 03:50:22;;;;;;;4.87;3.20;;;10.20;99.90;;;;;;5045736;28;20471;-71
2022/04/06 03:52:48;;;;;;;8.63;2.80;;;10.30;99.90;;;;;;5050663;28;20478;-70
2022/04/06 03:55:16;;;;;;;10.83;3.03;;;10.20;99.90;;;;;;5058603;28;20450;-70
2022/04/06 03:57:43;;;;;;;2.43;2.00;;;10.20;99.90;;;;;;5057928;28;20469;-71
2022/04/06 04:00:12;;;;;;;5.90;3.47;;;10.10;99.90;;;;;;5053554;28;20433;-71
2022/04/06 04:02:39;;;;;;;3.20;2.43;;;10.10;99.90;;;;;;5054801;28;20474;-71
2022/04/06 04:05:06;;;;;;;6.80;4.20;;;10.10;99.90;;;;;;5045301;28;20457;-72
2022/04/06 04:07:37;;;;;;;5.63;2.40;;;10.10;99.90;;;;;;5043671;28;20478;-71
2022/04/06 04:10:05;;;;;;;4.07;2.40;;;10.10;99.90;;;;;;5045263;28;20942;-71
2022/04/06 04:12:33;;;;;;;4.17;2.50;;;10.00;99.90;;;;;;5051885;28;20548;-71
2022/04/06 04:15:00;;;;;;;9.77;3.77;;;10.00;99.90;;;;;;5048146;28;20842;-71
2022/04/06 04:17:27;;;;;;;10.47;3.27;;;10.00;99.90;;;;;;5055748;28;20531;-71
2022/04/06 04:19:53;;;;;;;9.93;4.40;;;10.10;99.90;;;;;;5039837;28;20525;-73
2022/04/06 04:22:20;;;;;;;5.20;2.53;;;10.20;99.90;;;;;;5053789;28;20482;-72
2022/04/06 04:24:47;;;;;;;2.50;2.30;;;10.20;99.90;;;;;;5053211;28;20536;-72
2022/04/06 04:27:13;;;;;;;3.13;1.87;;;10.10;99.90;;;;;;5053316;28;20489;-72
2022/04/06 04:29:42;;;;;;;5.43;1.83;;;10.10;99.90;;;;;;5052708;28;20467;-72
2022/04/06 04:32:10;;;;;;;18.27;3.57;;;10.10;99.90;;;;;;5053593;28;20473;-71
2022/04/06 04:34:36;;;;;;;4.93;2.27;;;10.10;99.90;;;;;;5053525;28;20497;-71
2022/04/06 04:37:03;;;;;;;5.80;1.93;;;10.10;99.90;;;;;;5052895;28;20458;-72
2022/04/06 04:39:30;;;;;;;8.37;3.30;;;10.00;99.90;;;;;;5050855;28;20480;-72
2022/04/06 04:41:57;;;;;;;5.33;2.83;;;9.90;99.90;;;;;;5048532;28;21011;-70
2022/04/06 04:44:24;;;;;;;5.83;2.30;;;9.90;99.90;;;;;;5044496;28;20451;-70
2022/04/06 04:46:52;;;;;;;5.70;2.63;;;9.90;99.90;;;;;;5046667;28;20466;-72
2022/04/06 04:49:20;;;;;;;4.00;2.60;;;9.90;99.90;;;;;;5057754;28;20451;-72
2022/04/06 04:51:46;;;;;;;3.70;3.10;;;9.90;99.90;;;;;;5052734;28;20539;-72
2022/04/06 04:54:13;;;;;;;3.00;2.57;;;9.90;99.90;;;;;;5057551;28;20478;-72
2022/04/06 04:56:41;;;;;;;3.83;2.17;;;9.80;99.90;;;;;;5056284;28;20462;-71
2022/04/06 04:59:09;;;;;;;3.00;2.77;;;9.80;99.90;;;;;;5061907;28;20454;-71
2022/04/06 05:01:36;;;;;;;10.33;1.50;;;9.80;99.90;;;;;;5060635;28;20487;-71
2022/04/06 05:04:04;;;;;;;2.23;1.90;;;9.80;99.90;;;;;;5050175;28;20481;-72
2022/04/06 05:06:31;;;;;;;2.27;1.57;;;9.80;99.90;;;;;;5053352;28;20463;-72
2022/04/06 05:08:58;;;;;;;3.03;1.50;;;9.70;99.90;;;;;;5057132;28;20434;-72
2022/04/06 05:11:24;;;;;;;4.03;2.57;;;9.70;99.90;;;;;;5053190;28;20520;-72
2022/04/06 05:13:51;;;;;;;2.50;1.93;;;9.80;99.90;;;;;;5048689;28;20495;-73
2022/04/06 05:16:18;;;;;;;4.27;2.57;;;9.90;99.90;;;;;;5055051;28;20537;-72
2022/04/06 05:18:44;;;;;;;4.80;2.60;;;9.90;99.90;;;;;;5055859;28;21346;-73
2022/04/06 05:21:12;;;;;;;5.73;2.40;;;9.90;99.90;;;;;;5062281;28;20596;-71
2022/04/06 05:23:39;;;;;;;2.13;1.37;;;9.80;99.90;;;;;;5044743;28;20530;-73
2022/04/06 05:26:06;;;;;;;9.23;3.17;;;9.90;99.90;;;;;;5059396;28;20455;-72
2022/04/06 05:28:32;;;;;;;3.43;2.60;;;10.00;99.90;;;;;;5060754;28;20695;-72
2022/04/06 05:30:59;;;;;;;8.50;3.23;;;10.00;99.90;;;;;;5055502;28;20818;-72
2022/04/06 05:33:25;;;;;;;6.30;2.60;;;10.00;99.90;;;;;;5058146;28;20482;-72
2022/04/06 05:35:52;;;;;;;2.83;2.27;;;10.20;99.90;;;;;;5057340;28;20519;-72
2022/04/06 05:38:20;;;;;;;3.10;2.50;;;10.10;99.90;;;;;;5055131;28;20491;-71
2022/04/06 05:40:47;;;;;;;2.80;2.10;;;10.10;99.90;;;;;;5052382;28;20819;-72
2022/04/06 05:43:13;;;;;;;5.43;2.40;;;10.10;99.90;;;;;;5057338;28;20521;-72
2022/04/06 05:45:40;;;;;;;1.87;1.50;;;10.10;99.90;;;;;;5059459;28;20466;-72
2022/04/06 05:48:08;;;;;;;2.80;1.77;;;10.00;99.90;;;;;;5054157;28;20459;-70
2022/04/06 05:50:35;;;;;;;3.33;1.83;;;10.00;99.90;;;;;;5059740;28;20458;-70
2022/04/06 05:53:02;;;;;;;10.63;3.03;;;10.10;99.90;;;;;;5058669;28;21006;-74
2022/04/06 05:55:30;;;;;;;5.30;2.63;;;10.20;99.90;;;;;;5060426;28;20905;-71
2022/04/06 05:57:56;;;;;;;4.53;2.20;;;10.10;99.90;;;;;;5056487;28;20466;-72
2022/04/06 06:00:23;;;;;;;10.03;3.00;;;10.20;99.90;;;;;;5064725;28;20458;-73
2022/04/06 06:02:51;;;;;;;8.50;1.53;;;10.10;99.90;;;;;;5060632;28;20491;-71
2022/04/06 06:05:17;;;;;;;4.67;2.87;;;10.10;99.90;;;;;;5055048;28;20546;-72
2022/04/06 06:07:44;;;;;;;18.73;6.00;;;10.10;99.90;;;;;;5059320;28;20458;-72
2022/04/06 06:10:11;;;;;;;11.23;4.03;;;10.00;99.90;;;;;;5060134;28;20524;-73
2022/04/06 06:12:39;;;;;;;11.97;6.03;;;10.10;99.90;;;;;;5063622;28;20482;-71
2022/04/06 06:15:07;;;;;;;8.33;3.70;;;10.10;99.90;;;;;;5064997;28;20458;-72
2022/04/06 06:17:37;;;;;;;4.97;3.50;;;10.20;99.90;;;;;;5063446;28;21021;-73
2022/04/06 06:20:05;;;;;;;19.77;6.73;;;10.30;99.90;;;;;;5059930;28;21101;-72
2022/04/06 06:22:32;;;;;;;4.13;2.10;;;10.30;99.90;;;;;;5061194;28;20927;-74
2022/04/06 06:24:58;;;;;;;12.63;4.80;;;10.40;99.90;;;;;;5060193;28;20497;-72
2022/04/06 06:27:25;;;;;;;25.00;6.73;;;10.40;99.90;;;;;;5063730;28;20470;-71
2022/04/06 06:29:53;;;;;;;12.17;5.43;;;10.50;99.90;;;;;;5057116;28;20520;-73
2022/04/06 06:32:20;;;;;;;3.10;1.80;;;10.50;99.90;;;;;;5059673;28;20466;-73
2022/04/06 06:34:46;;;;;;;9.40;5.63;;;10.50;99.90;;;;;;5060593;28;20516;-74
2022/04/06 06:37:13;;;;;;;10.30;4.70;;;10.40;99.90;;;;;;5059046;28;21117;-72
2022/04/06 06:39:40;;;;;;;4.40;2.50;;;10.30;99.90;;;;;;5056707;28;20811;-73
2022/04/06 06:42:07;;;;;;;12.07;5.50;;;10.20;99.90;;;;;;5066183;28;20474;-73
2022/04/06 06:44:34;;;;;;;4.97;2.80;;;10.20;99.90;;;;;;5062521;28;20469;-73
2022/04/06 06:47:02;;;;;;;6.00;3.07;;;10.30;99.90;;;;;;5060463;28;20451;-71
2022/04/06 06:49:28;;;;;;;14.00;3.13;;;10.30;99.90;;;;;;5062805;28;20465;-70
2022/04/06 06:51:55;;;;;;;4.30;2.10;;;10.20;99.90;;;;;;5059006;28;20635;-74
2022/04/06 06:54:22;;;;;;;16.13;6.03;;;10.20;99.90;;;;;;5065923;28;20955;-73
2022/04/06 06:56:49;;;;;;;13.93;6.53;;;10.30;99.90;;;;;;5055130;28;20967;-72
2022/04/06 06:59:15;;;;;;;3.50;2.17;;;10.40;99.90;;;;;;5063573;28;20469;-74
2022/04/06 07:01:42;;;;;;;4.83;1.70;;;10.50;99.90;;;;;;5060078;28;20482;-75
2022/04/06 07:04:10;;;;;;;5.60;2.87;;;10.40;99.90;;;;;;5055061;28;21072;-73
2022/04/06 07:06:36;;;;;;;5.90;2.63;;;10.50;99.90;;;;;;5060190;28;20471;-70
2022/04/06 07:09:03;;;;;;;3.90;2.60;;;10.50;99.90;;;;;;5060265;28;20610;-74
2022/04/06 07:11:30;;;;;;;7.77;3.40;;;10.50;99.90;;;;;;5055218;28;20826;-72
2022/04/06 07:13:56;;;;;;;4.60;2.30;;;10.60;99.90;;;;;;5058090;28;20483;-74
2022/04/06 07:16:23;;;;;;;2.17;1.70;;;10.50;99.90;;;;;;5058298;28;20458;-72
2022/04/06 07:18:50;;;;;;;6.33;2.93;;;10.50;99.90;;;;;;5061502;28;20520;-72
2022/04/06 07:21:18;;;;;;;15.90;5.07;;;10.40;99.90;;;;;;5063059;28;20486;-73
2022/04/06 07:23:44;;;;;;;17.73;4.10;;;10.40;99.90;;;;;;5058200;28;20489;-71
2022/04/06 07:26:13;;;;;;;9.63;2.90;;;10.40;99.90;;;;;;5059992;28;20901;-72
2022/04/06 07:28:39;;;;;;;5.83;3.30;;;10.50;99.90;;;;;;5059447;28;20500;-71
2022/04/06 07:31:06;;;;;;;4.33;2.63;;;10.50;99.90;;;;;;5055338;28;20489;-72
2022/04/06 07:33:36;;;;;;;2.47;1.30;;;10.50;99.90;;;;;;5060670;28;20481;-72
2022/04/06 07:36:03;;;;;;;4.10;2.30;;;10.50;99.90;;;;;;5058452;28;20886;-72
2022/04/06 07:38:32;;;;;;;2.30;1.83;;;10.50;99.90;;;;;;5053144;28;20500;-72
2022/04/06 07:43:26;;;;;;;7.20;2.73;;;10.40;99.90;;;;;;5011976;28;20481;-70
2022/04/06 07:45:53;;;;;;;2.27;1.40;;;10.20;99.90;;;;;;5019790;28;20543;-71
2022/04/06 07:48:21;;;;;;;3.77;2.27;;;10.00;99.90;;;;;;5022381;28;20673;-70
2022/04/06 07:50:47;;;;;;;13.57;4.20;;;9.90;99.90;;;;;;5015893;28;20459;-71
2022/04/06 07:53:14;;;;;;;3.90;2.80;;;9.90;99.90;;;;;;5019378;28;20536;-71
2022/04/06 07:55:44;;;;;;;2.30;2.00;;;9.90;99.90;;;;;;5019673;28;20461;-71
2022/04/06 07:58:11;;;;;;;3.80;2.53;;;9.90;99.90;;;;;;5016343;28;20467;-71
2022/04/06 08:00:37;;;;;;;5.93;1.90;;;10.00;99.90;;;;;;5019316;28;20541;-70
2022/04/06 08:03:04;;;;;;;5.60;2.70;;;10.10;99.90;;;;;;5015104;28;20477;-72
2022/04/06 08:05:31;;;;;;;5.40;2.60;;;10.20;99.90;;;;;;5015926;28;20898;-71
2022/04/06 08:07:57;;;;;;;11.03;3.73;;;10.30;99.90;;;;;;5019893;28;20469;-70
2022/04/06 08:10:24;;;;;;;3.90;2.00;;;10.40;99.90;;;;;;5016662;28;20476;-71
2022/04/06 08:12:52;;;;;;;2.63;1.50;;;10.40;99.90;;;;;;5024325;28;20521;-71
2022/04/06 08:15:19;;;;;;;1.73;1.30;;;10.30;99.90;;;;;;5017127;28;21137;-71
2022/04/06 08:17:48;;;;;;;5.97;2.83;;;10.40;99.90;;;;;;5021314;28;20527;-70
2022/04/06 08:20:16;;;;;;;4.83;2.03;;;10.40;99.90;;;;;;5015536;28;20544;-70
2022/04/06 08:22:46;;;;;;;9.07;2.30;;;10.40;99.90;;;;;;5019070;28;20504;-70
2022/04/06 08:25:13;;;;;;;4.57;2.27;;;10.30;99.90;;;;;;5013557;28;20662;-71
2022/04/06 08:27:40;;;;;;;5.47;3.60;;;10.30;99.90;;;;;;5016339;28;20456;-73
2022/04/06 08:30:10;;;;;;;2.43;2.23;;;10.30;99.90;;;;;;5017641;28;20887;-70
2022/04/06 08:32:37;;;;;;;2.27;1.50;;;10.20;99.90;;;;;;5016107;28;20457;-71
2022/04/06 08:35:05;;;;;;;1.63;1.53;;;10.30;99.90;;;;;;5017769;28;20915;-71
2022/04/06 08:37:33;;;;;;;2.13;1.70;;;10.40;99.90;;;;;;5022379;28;20460;-70
2022/04/06 08:40:00;;;;;;;4.83;2.30;;;10.30;99.90;;;;;;5012777;28;20484;-70
2022/04/06 08:42:32;;;;;;;4.13;2.00;;;10.30;99.90;;;;;;5020233;28;20484;-73
2022/04/06 08:45:00;;;;;;;7.53;1.70;;;10.40;99.90;;;;;;5019917;28;20476;-72
2022/04/06 08:47:31;;;;;;;1.67;1.40;;;10.50;99.90;;;;;;5019728;28;20457;-71
2022/04/06 08:49:58;;;;;;;5.83;2.53;;;10.50;99.90;;;;;;5018795;28;20495;-71
2022/04/06 08:52:25;;;;;;;4.03;2.07;;;10.30;99.90;;;;;;5019621;28;20562;-70
2022/04/06 08:54:51;;;;;;;4.40;2.17;;;10.20;99.90;;;;;;5039285;28;20468;-72
2022/04/06 08:57:18;;;;;;;1.80;1.60;;;10.20;99.90;;;;;;5038134;28;20855;-71
2022/04/06 08:59:47;;;;;;;2.43;2.23;;;10.20;99.90;;;;;;5033709;28;20487;-70
2022/04/06 09:02:19;;;;;;;2.57;2.37;;;10.00;99.90;;;;;;5037014;28;20484;-70
2022/04/06 09:04:50;;;;;;;5.20;2.67;;;10.20;99.90;;;;;;5032881;28;20606;-70
2022/04/06 09:07:20;;;;;;;2.47;2.17;;;10.20;99.90;;;;;;5041069;28;20465;-69
2022/04/06 09:09:50;;;;;;;3.30;1.60;;;10.20;99.90;;;;;;5034360;28;20502;-70
2022/04/06 09:12:18;;;;;;;4.60;1.67;;;10.20;99.90;;;;;;5029239;28;21017;-70
2022/04/06 09:14:45;;;;;;;2.50;1.70;;;10.40;99.90;;;;;;5033470;28;20472;-71
2022/04/06 09:17:12;;;;;;;2.10;1.63;;;10.80;99.90;;;;;;5036751;28;20711;-71
2022/04/06 09:19:45;;;;;;;2.63;1.80;;;11.00;99.90;;;;;;5040142;28;20995;-70
2022/04/06 09:22:13;;;;;;;15.97;3.03;;;10.90;99.90;;;;;;5036085;28;20504;-71
2022/04/06 09:24:40;;;;;;;5.97;2.50;;;11.00;99.90;;;;;;5038420;28;20533;-70
2022/04/06 09:27:07;;;;;;;4.83;2.10;;;11.10;99.90;;;;;;5026513;28;20467;-72
2022/04/06 09:29:35;;;;;;;2.20;1.43;;;11.20;99.90;;;;;;5038060;28;20468;-73
2022/04/06 09:32:07;;;;;;;3.30;2.80;;;11.00;99.90;;;;;;5036735;28;20536;-70
2022/04/06 09:34:34;;;;;;;1.93;1.23;;;11.00;99.90;;;;;;5039499;28;21071;-73
2022/04/06 09:37:28;;;;;;;2.40;2.17;;;11.00;99.90;;;;;;5039052;28;20459;-71
2022/04/06 09:39:57;;;;;;;2.70;1.80;;;10.80;99.90;;;;;;5039452;28;20517;-70
2022/04/06 09:42:25;;;;;;;3.63;2.37;;;10.80;99.90;;;;;;5040993;28;20573;-71
2022/04/06 09:47:42;;;;;;;1.87;1.60;;;10.80;99.90;;;;;;5039845;28;20524;-72
2022/04/06 09:50:11;;;;;;;3.30;2.10;;;10.90;99.90;;;;;;5041386;28;20599;-70
2022/04/06 09:52:39;;;;;;;3.63;2.63;;;10.90;99.90;;;;;;5039974;28;20455;-70
2022/04/06 09:55:08;;;;;;;2.63;2.27;;;10.80;99.90;;;;;;5040394;28;20460;-73
2022/04/06 09:57:42;;;;;;;2.50;1.53;;;10.80;99.90;;;;;;5045474;28;20438;-71
2022/04/06 10:00:11;;;;;;;2.50;1.40;;;10.70;99.90;;;;;;5044195;28;20474;-70
2022/04/06 10:02:38;;;;;;;4.70;1.30;;;10.70;99.90;;;;;;5037094;28;20749;-70
2022/04/06 10:05:05;;;;;;;1.70;1.43;;;10.70;99.90;;;;;;5038769;28;20468;-71
2022/04/06 10:07:33;;;;;;;1.90;1.23;;;10.80;99.90;;;;;;5040361;28;20509;-69
2022/04/06 10:10:01;;;;;;;2.57;2.23;;;10.80;99.90;;;;;;5028621;28;20456;-72
2022/04/06 10:12:28;;;;;;;3.97;1.50;;;10.80;99.90;;;;;;5038720;28;20479;-70
2022/04/06 10:14:55;;;;;;;1.87;0.97;;;10.80;99.90;;;;;;5038956;28;20506;-74
2022/04/06 10:17:22;;;;;;;2.63;1.83;;;10.80;99.90;;;;;;5042126;28;20509;-71
2022/04/06 10:19:56;;;;;;;2.50;1.50;;;10.90;99.90;;;;;;5039603;28;20522;-73
2022/04/06 10:22:31;;;;;;;1.87;1.23;;;10.90;99.90;;;;;;5039321;28;20574;-71
2022/04/06 10:25:08;;;;;;;1.43;1.33;;;10.90;99.90;;;;;;5037927;28;20455;-73
2022/04/06 10:27:41;;;;;;;3.47;1.83;;;10.90;99.90;;;;;;5041409;28;20471;-73
2022/04/06 10:30:16;;;;;;;2.40;1.17;;;10.80;99.90;;;;;;5038132;28;20455;-70
2022/04/06 10:32:44;;;;;;;9.47;1.80;;;10.80;99.90;;;;;;5043642;28;20547;-71
2022/04/06 10:35:22;;;;;;;1.73;1.43;;;10.80;99.90;;;;;;5041855;28;21021;-70
2022/04/06 10:37:50;;;;;;;7.23;1.80;;;10.90;99.90;;;;;;5037668;28;20467;-70
2022/04/06 10:40:18;;;;;;;2.07;1.63;;;10.90;99.90;;;;;;5029395;28;20464;-72
2022/04/06 10:42:46;;;;;;;1.50;1.40;;;10.90;99.90;;;;;;5034487;28;20574;-71
2022/04/06 10:45:34;;;;;;;1.97;1.37;;;11.00;99.90;;;;;;5029645;28;20491;-71
2022/04/06 10:48:14;;;;;;;1.43;1.07;;;11.20;99.90;;;;;;5041345;28;20494;-70
2022/04/06 10:50:42;;;;;;;2.00;1.43;;;11.30;99.90;;;;;;5038193;28;20839;-70
2022/04/06 10:53:32;;;;;;;1.67;1.30;;;11.20;99.90;;;;;;5025309;28;20467;-70
2022/04/06 10:56:06;;;;;;;24.40;1.93;;;11.10;99.90;;;;;;5036366;28;20511;-72
2022/04/06 10:59:07;;;;;;;1.10;0.80;;;11.20;99.90;;;;;;5029668;28;20460;-72
2022/04/06 11:01:34;;;;;;;5.67;1.30;;;11.20;99.90;;;;;;5041569;28;20475;-70
2022/04/06 11:04:04;;;;;;;2.67;1.40;;;11.30;99.90;;;;;;5037061;28;20572;-70
2022/04/06 11:06:55;;;;;;;2.67;1.13;;;11.40;99.90;;;;;;5036377;28;20595;-70
2022/04/06 11:12:12;;;;;;;8.47;2.53;;;11.40;99.90;;;;;;5034781;28;20478;-70
2022/04/06 11:14:39;;;;;;;1.77;1.67;;;11.40;99.90;;;;;;5038155;28;20525;-72
2022/04/06 11:17:41;;;;;;;8.67;2.80;;;11.30;99.90;;;;;;5040626;28;20464;-71
2022/04/06 11:20:09;;;;;;;2.33;1.67;;;11.30;99.90;;;;;;5042967;28;20489;-72
2022/04/06 11:22:38;;;;;;;2.43;1.50;;;11.20;99.90;;;;;;5037944;28;20801;-70
2022/04/06 11:25:08;;;;;;;2.70;1.30;;;11.00;99.90;;;;;;5039459;28;20459;-70
2022/04/06 11:27:37;;;;;;;2.47;1.80;;;10.90;99.90;;;;;;5040496;28;20464;-71
2022/04/06 11:30:06;;;;;;;2.77;1.27;;;10.90;99.90;;;;;;5039757;28;20463;-71
2022/04/06 11:32:33;;;;;;;2.30;1.40;;;10.80;99.90;;;;;;5038730;28;20519;-71
2022/04/06 11:35:01;;;;;;;1.30;1.20;;;10.80;99.90;;;;;;5041879;28;20460;-70
2022/04/06 11:37:28;;;;;;;1.93;1.70;;;10.90;99.90;;;;;;5039715;28;20491;-71
2022/04/06 11:40:01;;;;;;;6.43;1.20;;;10.90;99.90;;;;;;5039805;28;20467;-72
2022/04/06 11:42:28;;;;;;;1.47;1.00;;;11.10;99.90;;;;;;5037098;28;20495;-71
2022/04/06 11:44:56;;;;;;;5.57;2.20;;;11.30;99.90;;;;;;5035370;28;20493;-71
2022/04/06 11:47:30;;;;;;;1.77;1.37;;;11.50;99.90;;;;;;5032352;28;20459;-71
2022/04/06 11:49:58;;;;;;;1.87;1.30;;;11.70;99.90;;;;;;5024907;28;20460;-74
2022/04/06 11:52:24;;;;;;;1.87;1.37;;;11.70;99.90;;;;;;5038507;28;20475;-70
2022/04/06 11:54:53;;;;;;;1.63;1.43;;;11.60;99.90;;;;;;5037063;28;20475;-70
2022/04/06 11:57:20;;;;;;;5.33;1.50;;;11.30;99.90;;;;;;5035925;28;20512;-71
2022/04/06 11:59:54;;;;;;;1.77;1.07;;;11.10;99.90;;;;;;5043448;28;20494;-70
2022/04/06 12:02:22;;;;;;;3.23;1.90;;;11.10;99.90;;;;;;5035827;28;20537;-73
2022/04/06 12:05:00;;;;;;;2.70;1.43;;;11.00;99.90;;;;;;5036957;28;20472;-69
2022/04/06 12:07:27;;;;;;;1.40;1.10;;;11.00;99.90;;;;;;5038671;28;20513;-71
2022/04/06 12:09:53;;;;;;;1.73;1.63;;;11.00;99.90;;;;;;5028351;28;20848;-69
2022/04/06 12:12:22;;;;;;;0.90;0.70;;;11.00;99.90;;;;;;5023620;28;20450;-69
2022/04/06 12:14:49;;;;;;;2.60;1.83;;;11.10;99.90;;;;;;5035124;28;20831;-70
2022/04/06 12:17:16;;;;;;;1.90;1.47;;;11.10;99.90;;;;;;5040221;28;20468;-72
2022/04/06 12:19:44;;;;;;;2.23;1.30;;;10.90;99.90;;;;;;5040261;28;20451;-70
2022/04/06 12:22:12;;;;;;;1.57;1.47;;;10.70;99.90;;;;;;5030275;28;20483;-70
2022/04/06 12:24:39;;;;;;;2.70;1.80;;;10.70;99.90;;;;;;5036778;28;20868;-70
2022/04/06 12:27:06;;;;;;;1.87;1.37;;;10.50;99.90;;;;;;5036632;28;20521;-70
2022/04/06 12:29:35;;;;;;;1.77;1.60;;;10.70;99.90;;;;;;5035810;28;20459;-72
2022/04/06 12:32:02;;;;;;;2.47;2.27;;;10.80;99.90;;;;;;5037185;28;20479;-70
2022/04/06 12:34:31;;;;;;;1.53;1.37;;;10.80;99.90;;;;;;5037713;28;20513;-71
2022/04/06 12:37:00;;;;;;;2.27;1.70;;;11.10;99.90;;;;;;5034291;28;21006;-70
2022/04/06 12:39:26;;;;;;;2.30;1.60;;;10.90;99.90;;;;;;5033889;28;20455;-71
2022/04/06 12:41:57;;;;;;;4.07;2.27;;;11.00;99.90;;;;;;5035514;28;20981;-71
2022/04/06 12:44:24;;;;;;;1.40;1.20;;;10.90;99.90;;;;;;5035242;28;20475;-71
2022/04/06 12:46:51;;;;;;;2.23;1.50;;;11.10;99.90;;;;;;5038076;28;20560;-71
2022/04/06 12:49:20;;;;;;;3.00;1.73;;;10.90;99.90;;;;;;5036941;28;20464;-71
2022/04/06 12:51:47;;;;;;;10.10;2.97;;;10.90;99.90;;;;;;5037994;28;20533;-74
2022/04/06 12:54:17;;;;;;;8.50;4.30;;;11.00;99.90;;;;;;5033775;28;20835;-71
2022/04/06 12:57:09;;;;;;;2.00;1.90;;;11.20;99.90;;;;;;5032073;28;20536;-72
2022/04/06 12:59:37;;;;;;;1.70;1.00;;;11.30;99.90;;;;;;5035905;28;20582;-71
2022/04/06 13:02:05;;;;;;;2.83;2.53;;;11.20;99.90;;;;;;5022127;28;20916;-72